CheckWX is a tool to help pilots better visualize weather data.  It is not intended as a substitute for an official pre-flight weather briefing.

23:53:26 UTC

KCMH TAF
John Glenn Columbus International Airport
Columbus, Ohio, USA
KCMH 252329Z 2600/2624 16006KT P6SM SCT120 BKN250 FM260300 15003KT P6SM SCT250 FM261200 16004KT P6SM SCT070 BKN120 FM261500 15006KT P6SM SCT045

May-26@
00:00 UTC

May-26 @ 00:00 UTC

May-26@
03:00 UTC

May-26 @ 03:00 UTC

TAF KCMH 252329Z 2600/2624 16006KT P6SM SCT120 BKN250

Expired

Wind
  • 160° at 6 KTS
Cloud Levels
  • Scattered at 12,000' AGL
  • Broken at 25,000' AGL

May-26@
03:00 UTC

May-26 @ 03:00 UTC

May-26@
12:00 UTC

May-26 @ 12:00 UTC

FM260300 15003KT P6SM SCT250

Expired

Wind
  • 150° at 3 KTS
Cloud Levels
  • Scattered at 25,000' AGL

May-26@
12:00 UTC

May-26 @ 12:00 UTC

May-26@
15:00 UTC

May-26 @ 15:00 UTC

FM261200 16004KT P6SM SCT070 BKN120

Expired

Wind
  • 160° at 4 KTS
Cloud Levels
  • Scattered at 7,000' AGL
  • Broken at 12,000' AGL

May-26@
15:00 UTC

May-26 @ 15:00 UTC

May-27@
00:00 UTC

May-27 @ 00:00 UTC

FM261500 15006KT P6SM SCT045

From

From Standard forecast or significant change

Wind
  • 150° at 6 KTS
Cloud Levels
  • Scattered at 4,500' AGL